Winona, KS (67764)

6:35 PM CDT on June 02, 2015 (GMT -0500)
SCFarms | | Change Station
CLOSE
Current Station
Personal Weather Station
Location: Levant, KS
Elevation: 3293 ft
Nearby Weather Stations

Elev 3293 ft 39.30 °N, 101.20 °W | Updated 1 minute ago

Clear
Clear
86.7 °F
Feels Like 88 °F
N
8.0
Wind Variable Wind from SSE
Gusts 11.0 mph

Today
High -- | Low -- °F
--% Chance of Precip.
Yesterday
High -- | Low -- °F
Precip. -- in
6:20 AM 9:05 PM
Full, 100% visible
Pressure 29.81 in
Visibility 10.0 miles
Clouds Clear
Heat Index 88 °F
Dew Point 65 °F
Humidity 48%
Rainfall 0.00 in
Snow Depth Not available.
UV 3 out of 12
Pollen 7.10 out of 12
Air Quality Not available.
Flu Activity No Activity
METAR KCBK 022315Z AUTO 16012KT 10SM CLR 32/17 A2981 RMK AO2

More Conditions Fewer Conditions

Pressure 29.81 in
Visibility 10.0 miles
Clouds Clear
Heat Index 88 °F
Dew Point 65 °F
Humidity 48%
Rainfall 0.00 in
Snow Depth Not available.
UV 3 out of 12
Pollen 7.10 out of 12
Air Quality Not available.
Flu Activity No Activity
METAR KCBK 022315Z AUTO 16012KT 10SM CLR 32/17 A2981 RMK AO2

More Conditions Fewer Conditions

10-Day Weather Forecast

×

Almanac

Astronomy

Jun. 02, 2015 Rise Set
Actual Time
Civil Twilight
Nautical Twilight
Astronomical Twilight
Moon
Length of Visible Light
Length of Day
Tomorrow will be .
, % of the Moon is Illuminated

Today's Extremes

State Highs State Lows

Community

WunderPhotos

Upload Photos

1,826,057 photos uploaded!

WunderBlogs® & News

Nearby

Air Quality

  Air Quality AQ Index Pollutant
Not available.

Snow Depth

Station Depth Elevation

Earthquake Activity

City Distance Mag. Time & Date
Minimum magnitude displayed is 2.5.

Coastal Water Temperatures

Place Temperature

Stations

Nearby Weather Stations

Station Location Temp. Windchill Dew Point Humidity Wind Precip. Elev Updated Type